sensor_id;sensor_type;location;lat;lon;timestamp;P1;durP1;ratioP1;P2;durP2;ratioP2
3795;SDS011;1913;50.660;7.834;2023-01-13T00:01:10;0.73;;;0.73;;
3795;SDS011;1913;50.660;7.834;2023-01-13T00:03:39;1.93;;;1.10;;
3795;SDS011;1913;50.660;7.834;2023-01-13T00:06:04;0.93;;;0.90;;
3795;SDS011;1913;50.660;7.834;2023-01-13T00:08:31;1.20;;;0.70;;
3795;SDS011;1913;50.660;7.834;2023-01-13T00:10:57;1.13;;;0.90;;
3795;SDS011;1913;50.660;7.834;2023-01-13T00:13:23;0.90;;;0.90;;
3795;SDS011;1913;50.660;7.834;2023-01-13T00:15:59;1.67;;;0.90;;
3795;SDS011;1913;50.660;7.834;2023-01-13T00:18:26;0.93;;;0.87;;
3795;SDS011;1913;50.660;7.834;2023-01-13T00:21:02;2.67;;;1.00;;
3795;SDS011;1913;50.660;7.834;2023-01-13T00:23:31;2.70;;;0.87;;
3795;SDS011;1913;50.660;7.834;2023-01-13T00:25:58;0.80;;;0.80;;
3795;SDS011;1913;50.660;7.834;2023-01-13T00:28:26;0.87;;;0.87;;
3795;SDS011;1913;50.660;7.834;2023-01-13T00:30:52;0.90;;;0.80;;
3795;SDS011;1913;50.660;7.834;2023-01-13T00:33:20;2.70;;;1.00;;
3795;SDS011;1913;50.660;7.834;2023-01-13T00:35:54;0.90;;;0.90;;
3795;SDS011;1913;50.660;7.834;2023-01-13T00:38:20;0.70;;;0.70;;
3795;SDS011;1913;50.660;7.834;2023-01-13T00:40:53;0.83;;;0.83;;
3795;SDS011;1913;50.660;7.834;2023-01-13T00:43:30;0.70;;;0.70;;
3795;SDS011;1913;50.660;7.834;2023-01-13T00:45:57;0.70;;;0.70;;
3795;SDS011;1913;50.660;7.834;2023-01-13T00:48:22;0.90;;;0.90;;
3795;SDS011;1913;50.660;7.834;2023-01-13T00:50:55;0.73;;;0.73;;
3795;SDS011;1913;50.660;7.834;2023-01-13T00:53:22;1.27;;;0.80;;
3795;SDS011;1913;50.660;7.834;2023-01-13T00:55:48;2.40;;;1.10;;
3795;SDS011;1913;50.660;7.834;2023-01-13T00:58:14;1.00;;;0.80;;
3795;SDS011;1913;50.660;7.834;2023-01-13T01:00:40;1.53;;;0.90;;
3795;SDS011;1913;50.660;7.834;2023-01-13T01:03:06;0.67;;;0.67;;
3795;SDS011;1913;50.660;7.834;2023-01-13T01:05:37;1.73;;;0.93;;
3795;SDS011;1913;50.660;7.834;2023-01-13T01:08:03;2.43;;;0.87;;
3795;SDS011;1913;50.660;7.834;2023-01-13T01:10:29;1.77;;;0.90;;
3795;SDS011;1913;50.660;7.834;2023-01-13T01:12:55;0.90;;;0.90;;
3795;SDS011;1913;50.660;7.834;2023-01-13T01:15:20;1.03;;;0.93;;
3795;SDS011;1913;50.660;7.834;2023-01-13T01:17:46;0.97;;;0.80;;
3795;SDS011;1913;50.660;7.834;2023-01-13T01:20:11;0.90;;;0.80;;
3795;SDS011;1913;50.660;7.834;2023-01-13T01:22:37;0.97;;;0.80;;
3795;SDS011;1913;50.660;7.834;2023-01-13T01:25:03;0.97;;;0.87;;
3795;SDS011;1913;50.660;7.834;2023-01-13T01:27:29;0.90;;;0.90;;
3795;SDS011;1913;50.660;7.834;2023-01-13T01:29:54;1.10;;;1.00;;
3795;SDS011;1913;50.660;7.834;2023-01-13T01:32:20;1.53;;;1.00;;
3795;SDS011;1913;50.660;7.834;2023-01-13T01:34:45;1.60;;;1.07;;
3795;SDS011;1913;50.660;7.834;2023-01-13T01:37:11;1.83;;;0.80;;
3795;SDS011;1913;50.660;7.834;2023-01-13T01:39:36;1.77;;;0.80;;
3795;SDS011;1913;50.660;7.834;2023-01-13T01:42:02;0.90;;;0.70;;
3795;SDS011;1913;50.660;7.834;2023-01-13T01:44:52;2.40;;;0.87;;
3795;SDS011;1913;50.660;7.834;2023-01-13T01:47:22;0.70;;;0.70;;
3795;SDS011;1913;50.660;7.834;2023-01-13T01:49:49;1.57;;;0.80;;
3795;SDS011;1913;50.660;7.834;2023-01-13T01:52:19;0.80;;;0.80;;
3795;SDS011;1913;50.660;7.834;2023-01-13T01:54:53;0.87;;;0.80;;
3795;SDS011;1913;50.660;7.834;2023-01-13T02:00:22;0.80;;;0.80;;
3795;SDS011;1913;50.660;7.834;2023-01-13T02:02:49;1.20;;;0.80;;
3795;SDS011;1913;50.660;7.834;2023-01-13T02:05:16;2.00;;;0.90;;
3795;SDS011;1913;50.660;7.834;2023-01-13T02:07:42;0.60;;;0.60;;
3795;SDS011;1913;50.660;7.834;2023-01-13T02:10:12;1.40;;;0.97;;
3795;SDS011;1913;50.660;7.834;2023-01-13T02:12:39;3.53;;;1.10;;
3795;SDS011;1913;50.660;7.834;2023-01-13T02:15:09;0.80;;;0.80;;
3795;SDS011;1913;50.660;7.834;2023-01-13T02:32:36;1.20;;;0.80;;
3795;SDS011;1913;50.660;7.834;2023-01-13T02:37:46;1.27;;;0.80;;
3795;SDS011;1913;50.660;7.834;2023-01-13T02:40:17;1.47;;;0.80;;
3795;SDS011;1913;50.660;7.834;2023-01-13T02:46:04;0.83;;;0.83;;
3795;SDS011;1913;50.660;7.834;2023-01-13T02:48:35;1.43;;;0.80;;
3795;SDS011;1913;50.660;7.834;2023-01-13T02:51:04;1.33;;;0.70;;
3795;SDS011;1913;50.660;7.834;2023-01-13T02:53:42;4.67;;;1.00;;
3795;SDS011;1913;50.660;7.834;2023-01-13T02:56:12;3.80;;;0.80;;
3795;SDS011;1913;50.660;7.834;2023-01-13T02:58:40;6.73;;;0.80;;
3795;SDS011;1913;50.660;7.834;2023-01-13T03:01:09;2.07;;;0.90;;
3795;SDS011;1913;50.660;7.834;2023-01-13T03:03:35;4.73;;;1.10;;
3795;SDS011;1913;50.660;7.834;2023-01-13T03:06:47;2.60;;;0.77;;
3795;SDS011;1913;50.660;7.834;2023-01-13T03:09:02;2.50;;;0.93;;
3795;SDS011;1913;50.660;7.834;2023-01-13T03:11:43;1.77;;;0.93;;
3795;SDS011;1913;50.660;7.834;2023-01-13T03:16:46;2.73;;;0.93;;
3795;SDS011;1913;50.660;7.834;2023-01-13T03:19:41;1.10;;;0.70;;
3795;SDS011;1913;50.660;7.834;2023-01-13T03:22:27;0.83;;;0.70;;
3795;SDS011;1913;50.660;7.834;2023-01-13T03:30:22;1.87;;;0.80;;
3795;SDS011;1913;50.660;7.834;2023-01-13T03:32:54;1.10;;;0.70;;
3795;SDS011;1913;50.660;7.834;2023-01-13T03:35:30;3.33;;;1.10;;
3795;SDS011;1913;50.660;7.834;2023-01-13T03:38:01;4.40;;;0.80;;
3795;SDS011;1913;50.660;7.834;2023-01-13T03:40:35;1.53;;;0.90;;
3795;SDS011;1913;50.660;7.834;2023-01-13T03:43:15;0.80;;;0.70;;
3795;SDS011;1913;50.660;7.834;2023-01-13T03:46:05;2.10;;;0.70;;
3795;SDS011;1913;50.660;7.834;2023-01-13T03:48:37;0.60;;;0.60;;
3795;SDS011;1913;50.660;7.834;2023-01-13T03:51:06;2.20;;;0.60;;
3795;SDS011;1913;50.660;7.834;2023-01-13T03:53:37;2.63;;;0.70;;
3795;SDS011;1913;50.660;7.834;2023-01-13T03:57:01;1.57;;;0.70;;
3795;SDS011;1913;50.660;7.834;2023-01-13T03:59:10;2.00;;;0.70;;
3795;SDS011;1913;50.660;7.834;2023-01-13T04:01:51;1.30;;;0.70;;
3795;SDS011;1913;50.660;7.834;2023-01-13T04:05:10;2.10;;;0.70;;
3795;SDS011;1913;50.660;7.834;2023-01-13T04:09:48;1.77;;;0.80;;
3795;SDS011;1913;50.660;7.834;2023-01-13T04:12:25;1.00;;;0.70;;
3795;SDS011;1913;50.660;7.834;2023-01-13T04:15:16;2.27;;;1.00;;
3795;SDS011;1913;50.660;7.834;2023-01-13T04:17:45;3.87;;;1.80;;
3795;SDS011;1913;50.660;7.834;2023-01-13T04:20:10;1.40;;;0.97;;
3795;SDS011;1913;50.660;7.834;2023-01-13T04:22:36;2.80;;;0.70;;
3795;SDS011;1913;50.660;7.834;2023-01-13T04:25:02;2.20;;;0.80;;
3795;SDS011;1913;50.660;7.834;2023-01-13T04:27:27;1.10;;;0.80;;
3795;SDS011;1913;50.660;7.834;2023-01-13T04:29:53;0.83;;;0.83;;
3795;SDS011;1913;50.660;7.834;2023-01-13T04:32:19;1.73;;;0.90;;
3795;SDS011;1913;50.660;7.834;2023-01-13T04:34:45;1.83;;;0.80;;
3795;SDS011;1913;50.660;7.834;2023-01-13T04:37:10;3.63;;;0.80;;
3795;SDS011;1913;50.660;7.834;2023-01-13T04:39:36;2.23;;;0.80;;
3795;SDS011;1913;50.660;7.834;2023-01-13T04:42:01;2.90;;;0.97;;
3795;SDS011;1913;50.660;7.834;2023-01-13T04:44:27;1.67;;;0.80;;
3795;SDS011;1913;50.660;7.834;2023-01-13T04:46:56;5.33;;;0.93;;
3795;SDS011;1913;50.660;7.834;2023-01-13T04:49:22;2.60;;;1.10;;
3795;SDS011;1913;50.660;7.834;2023-01-13T04:51:48;7.83;;;0.90;;
3795;SDS011;1913;50.660;7.834;2023-01-13T04:54:14;7.07;;;0.80;;
3795;SDS011;1913;50.660;7.834;2023-01-13T04:56:40;2.60;;;1.27;;
3795;SDS011;1913;50.660;7.834;2023-01-13T04:59:07;1.00;;;0.90;;
3795;SDS011;1913;50.660;7.834;2023-01-13T05:01:37;3.27;;;1.10;;
3795;SDS011;1913;50.660;7.834;2023-01-13T05:04:02;1.97;;;0.80;;
3795;SDS011;1913;50.660;7.834;2023-01-13T05:06:29;1.37;;;0.90;;
3795;SDS011;1913;50.660;7.834;2023-01-13T05:08:55;5.23;;;1.10;;
3795;SDS011;1913;50.660;7.834;2023-01-13T05:11:21;1.90;;;0.80;;
3795;SDS011;1913;50.660;7.834;2023-01-13T05:14:06;4.17;;;0.83;;
3795;SDS011;1913;50.660;7.834;2023-01-13T05:16:51;3.00;;;1.03;;
3795;SDS011;1913;50.660;7.834;2023-01-13T05:19:25;4.03;;;1.00;;
3795;SDS011;1913;50.660;7.834;2023-01-13T05:21:55;6.20;;;1.10;;
3795;SDS011;1913;50.660;7.834;2023-01-13T05:24:40;6.23;;;1.10;;
3795;SDS011;1913;50.660;7.834;2023-01-13T05:27:24;5.30;;;1.33;;
3795;SDS011;1913;50.660;7.834;2023-01-13T05:29:50;4.70;;;1.30;;
3795;SDS011;1913;50.660;7.834;2023-01-13T05:32:15;3.00;;;1.20;;
3795;SDS011;1913;50.660;7.834;2023-01-13T05:34:41;3.87;;;1.20;;
3795;SDS011;1913;50.660;7.834;2023-01-13T05:37:07;3.90;;;1.10;;
3795;SDS011;1913;50.660;7.834;2023-01-13T05:39:35;2.30;;;1.20;;
3795;SDS011;1913;50.660;7.834;2023-01-13T05:42:19;2.17;;;1.13;;
3795;SDS011;1913;50.660;7.834;2023-01-13T05:45:03;4.47;;;1.60;;
3795;SDS011;1913;50.660;7.834;2023-01-13T05:47:32;4.23;;;1.60;;
3795;SDS011;1913;50.660;7.834;2023-01-13T05:49:58;3.17;;;1.63;;
3795;SDS011;1913;50.660;7.834;2023-01-13T05:52:23;3.63;;;1.37;;
3795;SDS011;1913;50.660;7.834;2023-01-13T05:54:49;3.10;;;1.07;;
3795;SDS011;1913;50.660;7.834;2023-01-13T05:57:15;4.20;;;1.63;;
3795;SDS011;1913;50.660;7.834;2023-01-13T05:59:41;2.80;;;1.20;;
3795;SDS011;1913;50.660;7.834;2023-01-13T06:02:06;5.30;;;1.30;;
3795;SDS011;1913;50.660;7.834;2023-01-13T06:04:32;6.67;;;1.40;;
3795;SDS011;1913;50.660;7.834;2023-01-13T06:06:58;4.83;;;1.37;;
3795;SDS011;1913;50.660;7.834;2023-01-13T06:09:23;6.33;;;1.30;;
3795;SDS011;1913;50.660;7.834;2023-01-13T06:11:49;14.23;;;1.60;;
3795;SDS011;1913;50.660;7.834;2023-01-13T06:14:14;4.93;;;1.10;;
3795;SDS011;1913;50.660;7.834;2023-01-13T06:16:41;7.00;;;1.70;;
3795;SDS011;1913;50.660;7.834;2023-01-13T06:19:07;4.77;;;1.40;;
3795;SDS011;1913;50.660;7.834;2023-01-13T06:21:33;10.17;;;2.60;;
3795;SDS011;1913;50.660;7.834;2023-01-13T06:23:59;4.93;;;1.57;;
3795;SDS011;1913;50.660;7.834;2023-01-13T06:26:25;4.97;;;1.93;;
3795;SDS011;1913;50.660;7.834;2023-01-13T06:28:53;6.10;;;1.57;;
3795;SDS011;1913;50.660;7.834;2023-01-13T06:31:18;3.33;;;1.90;;
3795;SDS011;1913;50.660;7.834;2023-01-13T06:33:46;7.57;;;1.37;;
3795;SDS011;1913;50.660;7.834;2023-01-13T06:36:15;4.90;;;1.77;;
3795;SDS011;1913;50.660;7.834;2023-01-13T06:38:46;5.80;;;1.30;;
3795;SDS011;1913;50.660;7.834;2023-01-13T06:41:18;2.80;;;1.20;;
3795;SDS011;1913;50.660;7.834;2023-01-13T06:44:07;8.97;;;2.53;;
3795;SDS011;1913;50.660;7.834;2023-01-13T06:46:33;7.53;;;1.43;;
3795;SDS011;1913;50.660;7.834;2023-01-13T06:48:59;5.00;;;1.40;;
3795;SDS011;1913;50.660;7.834;2023-01-13T06:51:25;4.17;;;1.50;;
3795;SDS011;1913;50.660;7.834;2023-01-13T06:53:50;5.60;;;2.20;;
3795;SDS011;1913;50.660;7.834;2023-01-13T06:56:16;6.37;;;1.87;;
3795;SDS011;1913;50.660;7.834;2023-01-13T06:58:41;6.63;;;1.27;;
3795;SDS011;1913;50.660;7.834;2023-01-13T07:01:07;3.67;;;1.27;;
3795;SDS011;1913;50.660;7.834;2023-01-13T07:03:33;7.00;;;1.90;;
3795;SDS011;1913;50.660;7.834;2023-01-13T07:05:58;4.57;;;1.30;;
3795;SDS011;1913;50.660;7.834;2023-01-13T07:08:26;5.03;;;1.33;;
3795;SDS011;1913;50.660;7.834;2023-01-13T07:10:51;3.40;;;1.60;;
3795;SDS011;1913;50.660;7.834;2023-01-13T07:13:17;8.83;;;1.80;;
3795;SDS011;1913;50.660;7.834;2023-01-13T07:16:03;2.10;;;1.30;;
3795;SDS011;1913;50.660;7.834;2023-01-13T07:18:31;8.30;;;1.90;;
3795;SDS011;1913;50.660;7.834;2023-01-13T07:20:58;6.50;;;1.80;;
3795;SDS011;1913;50.660;7.834;2023-01-13T07:23:26;6.37;;;1.70;;
3795;SDS011;1913;50.660;7.834;2023-01-13T07:25:56;10.00;;;1.77;;
3795;SDS011;1913;50.660;7.834;2023-01-13T07:28:23;3.03;;;1.60;;
3795;SDS011;1913;50.660;7.834;2023-01-13T07:30:49;7.33;;;1.47;;
3795;SDS011;1913;50.660;7.834;2023-01-13T07:33:15;6.73;;;1.60;;
3795;SDS011;1913;50.660;7.834;2023-01-13T07:35:43;5.77;;;1.70;;
3795;SDS011;1913;50.660;7.834;2023-01-13T07:38:09;4.30;;;1.40;;
3795;SDS011;1913;50.660;7.834;2023-01-13T07:40:35;7.13;;;1.53;;
3795;SDS011;1913;50.660;7.834;2023-01-13T07:43:01;7.03;;;1.63;;
3795;SDS011;1913;50.660;7.834;2023-01-13T07:45:45;7.43;;;1.60;;
3795;SDS011;1913;50.660;7.834;2023-01-13T07:48:11;10.47;;;2.10;;
3795;SDS011;1913;50.660;7.834;2023-01-13T07:50:36;7.33;;;2.37;;
3795;SDS011;1913;50.660;7.834;2023-01-13T07:53:02;6.80;;;1.90;;
3795;SDS011;1913;50.660;7.834;2023-01-13T07:55:28;6.53;;;1.63;;
3795;SDS011;1913;50.660;7.834;2023-01-13T07:57:54;6.00;;;2.03;;
3795;SDS011;1913;50.660;7.834;2023-01-13T08:00:19;6.27;;;1.90;;
3795;SDS011;1913;50.660;7.834;2023-01-13T08:02:45;7.60;;;1.90;;
3795;SDS011;1913;50.660;7.834;2023-01-13T08:05:11;6.13;;;1.70;;
3795;SDS011;1913;50.660;7.834;2023-01-13T08:07:36;9.07;;;1.93;;
3795;SDS011;1913;50.660;7.834;2023-01-13T08:10:02;5.67;;;1.53;;
3795;SDS011;1913;50.660;7.834;2023-01-13T08:12:28;5.23;;;2.17;;
3795;SDS011;1913;50.660;7.834;2023-01-13T08:15:13;7.20;;;1.80;;
3795;SDS011;1913;50.660;7.834;2023-01-13T08:17:38;9.30;;;1.67;;
3795;SDS011;1913;50.660;7.834;2023-01-13T08:20:04;3.87;;;1.63;;
3795;SDS011;1913;50.660;7.834;2023-01-13T08:22:30;4.10;;;1.40;;
3795;SDS011;1913;50.660;7.834;2023-01-13T08:24:58;8.60;;;1.40;;
3795;SDS011;1913;50.660;7.834;2023-01-13T08:27:24;3.97;;;1.53;;
3795;SDS011;1913;50.660;7.834;2023-01-13T08:29:49;1.83;;;1.03;;
3795;SDS011;1913;50.660;7.834;2023-01-13T08:32:15;1.57;;;1.23;;
3795;SDS011;1913;50.660;7.834;2023-01-13T08:34:41;1.73;;;1.20;;
3795;SDS011;1913;50.660;7.834;2023-01-13T08:37:06;5.00;;;1.70;;
3795;SDS011;1913;50.660;7.834;2023-01-13T08:39:32;2.93;;;1.60;;
3795;SDS011;1913;50.660;7.834;2023-01-13T08:41:58;5.20;;;1.67;;
3795;SDS011;1913;50.660;7.834;2023-01-13T08:44:24;5.17;;;1.70;;
3795;SDS011;1913;50.660;7.834;2023-01-13T08:46:51;4.27;;;1.70;;
3795;SDS011;1913;50.660;7.834;2023-01-13T08:49:17;6.40;;;2.03;;
3795;SDS011;1913;50.660;7.834;2023-01-13T08:51:43;12.27;;;2.10;;
3795;SDS011;1913;50.660;7.834;2023-01-13T08:54:09;6.10;;;2.03;;
3795;SDS011;1913;50.660;7.834;2023-01-13T08:56:35;7.13;;;2.40;;
3795;SDS011;1913;50.660;7.834;2023-01-13T08:59:01;9.30;;;1.90;;
3795;SDS011;1913;50.660;7.834;2023-01-13T09:01:27;9.97;;;2.20;;
3795;SDS011;1913;50.660;7.834;2023-01-13T09:03:53;3.53;;;1.90;;
3795;SDS011;1913;50.660;7.834;2023-01-13T09:06:18;11.57;;;2.20;;
3795;SDS011;1913;50.660;7.834;2023-01-13T09:08:44;6.37;;;1.60;;
3795;SDS011;1913;50.660;7.834;2023-01-13T09:11:16;11.93;;;1.90;;
3795;SDS011;1913;50.660;7.834;2023-01-13T09:14:03;8.90;;;2.10;;
3795;SDS011;1913;50.660;7.834;2023-01-13T09:16:29;6.37;;;2.00;;
3795;SDS011;1913;50.660;7.834;2023-01-13T09:18:54;5.90;;;1.90;;
3795;SDS011;1913;50.660;7.834;2023-01-13T09:21:20;8.53;;;1.73;;
3795;SDS011;1913;50.660;7.834;2023-01-13T09:23:46;4.67;;;1.60;;
3795;SDS011;1913;50.660;7.834;2023-01-13T09:26:13;6.23;;;1.83;;
3795;SDS011;1913;50.660;7.834;2023-01-13T09:28:44;5.83;;;1.77;;
3795;SDS011;1913;50.660;7.834;2023-01-13T09:31:09;14.43;;;2.20;;
3795;SDS011;1913;50.660;7.834;2023-01-13T09:33:35;6.27;;;1.60;;
3795;SDS011;1913;50.660;7.834;2023-01-13T09:36:19;9.23;;;2.10;;
3795;SDS011;1913;50.660;7.834;2023-01-13T09:38:45;9.60;;;1.87;;
3795;SDS011;1913;50.660;7.834;2023-01-13T09:41:20;13.43;;;2.03;;
3795;SDS011;1913;50.660;7.834;2023-01-13T09:44:08;6.83;;;1.93;;
3795;SDS011;1913;50.660;7.834;2023-01-13T09:46:42;9.23;;;2.80;;
3795;SDS011;1913;50.660;7.834;2023-01-13T09:49:16;8.10;;;2.37;;
3795;SDS011;1913;50.660;7.834;2023-01-13T09:51:51;7.60;;;2.17;;
3795;SDS011;1913;50.660;7.834;2023-01-13T09:54:32;10.47;;;2.20;;
3795;SDS011;1913;50.660;7.834;2023-01-13T09:57:12;12.90;;;3.60;;
3795;SDS011;1913;50.660;7.834;2023-01-13T09:59:39;11.50;;;2.50;;
3795;SDS011;1913;50.660;7.834;2023-01-13T10:05:08;5.43;;;2.17;;
3795;SDS011;1913;50.660;7.834;2023-01-13T10:07:48;11.27;;;2.40;;
3795;SDS011;1913;50.660;7.834;2023-01-13T10:13:24;6.57;;;2.00;;
3795;SDS011;1913;50.660;7.834;2023-01-13T10:18:27;7.87;;;2.03;;
3795;SDS011;1913;50.660;7.834;2023-01-13T10:29:17;4.27;;;1.80;;
3795;SDS011;1913;50.660;7.834;2023-01-13T10:31:50;9.10;;;2.33;;
3795;SDS011;1913;50.660;7.834;2023-01-13T10:34:16;8.80;;;1.90;;
3795;SDS011;1913;50.660;7.834;2023-01-13T10:36:56;6.50;;;2.27;;
3795;SDS011;1913;50.660;7.834;2023-01-13T10:39:45;7.00;;;2.10;;
3795;SDS011;1913;50.660;7.834;2023-01-13T10:42:16;5.73;;;2.00;;
3795;SDS011;1913;50.660;7.834;2023-01-13T10:44:54;13.07;;;1.93;;
3795;SDS011;1913;50.660;7.834;2023-01-13T10:50:20;8.13;;;2.43;;
3795;SDS011;1913;50.660;7.834;2023-01-13T10:52:56;7.83;;;2.67;;
3795;SDS011;1913;50.660;7.834;2023-01-13T10:58:15;14.77;;;2.27;;
3795;SDS011;1913;50.660;7.834;2023-01-13T11:00:42;6.83;;;2.07;;
3795;SDS011;1913;50.660;7.834;2023-01-13T11:03:16;8.80;;;2.87;;
3795;SDS011;1913;50.660;7.834;2023-01-13T11:05:48;6.00;;;2.20;;
3795;SDS011;1913;50.660;7.834;2023-01-13T11:08:16;3.90;;;1.80;;
3795;SDS011;1913;50.660;7.834;2023-01-13T11:10:47;11.30;;;2.70;;
3795;SDS011;1913;50.660;7.834;2023-01-13T11:13:27;5.07;;;2.20;;
3795;SDS011;1913;50.660;7.834;2023-01-13T11:16:12;7.97;;;1.90;;
3795;SDS011;1913;50.660;7.834;2023-01-13T11:24:28;9.73;;;2.83;;
3795;SDS011;1913;50.660;7.834;2023-01-13T11:32:12;9.03;;;2.10;;
3795;SDS011;1913;50.660;7.834;2023-01-13T11:34:42;5.10;;;2.00;;
3795;SDS011;1913;50.660;7.834;2023-01-13T11:37:31;9.00;;;1.90;;
3795;SDS011;1913;50.660;7.834;2023-01-13T11:40:02;10.00;;;2.10;;
3795;SDS011;1913;50.660;7.834;2023-01-13T11:42:42;12.83;;;2.10;;
3795;SDS011;1913;50.660;7.834;2023-01-13T11:47:50;11.73;;;2.40;;
3795;SDS011;1913;50.660;7.834;2023-01-13T11:50:26;10.03;;;2.50;;
3795;SDS011;1913;50.660;7.834;2023-01-13T11:53:03;9.90;;;2.33;;
3795;SDS011;1913;50.660;7.834;2023-01-13T11:56:01;14.93;;;2.73;;
3795;SDS011;1913;50.660;7.834;2023-01-13T12:01:41;9.10;;;2.17;;
3795;SDS011;1913;50.660;7.834;2023-01-13T12:06:41;9.30;;;2.17;;
3795;SDS011;1913;50.660;7.834;2023-01-13T12:11:56;10.10;;;2.20;;
3795;SDS011;1913;50.660;7.834;2023-01-13T12:22:45;10.27;;;2.37;;
3795;SDS011;1913;50.660;7.834;2023-01-13T12:25:19;10.37;;;1.90;;
3795;SDS011;1913;50.660;7.834;2023-01-13T12:27:57;12.97;;;2.80;;
3795;SDS011;1913;50.660;7.834;2023-01-13T12:30:29;14.53;;;2.50;;
3795;SDS011;1913;50.660;7.834;2023-01-13T12:32:58;8.67;;;2.10;;
3795;SDS011;1913;50.660;7.834;2023-01-13T12:36:01;10.00;;;2.57;;
3795;SDS011;1913;50.660;7.834;2023-01-13T12:38:47;16.13;;;2.60;;
3795;SDS011;1913;50.660;7.834;2023-01-13T12:43:53;14.97;;;2.80;;
3795;SDS011;1913;50.660;7.834;2023-01-13T12:46:43;13.60;;;2.50;;
3795;SDS011;1913;50.660;7.834;2023-01-13T12:49:27;15.30;;;2.90;;
3795;SDS011;1913;50.660;7.834;2023-01-13T12:57:08;8.80;;;2.23;;
3795;SDS011;1913;50.660;7.834;2023-01-13T12:59:56;14.43;;;2.13;;
3795;SDS011;1913;50.660;7.834;2023-01-13T13:02:37;12.43;;;2.17;;
3795;SDS011;1913;50.660;7.834;2023-01-13T13:07:46;12.77;;;3.00;;
3795;SDS011;1913;50.660;7.834;2023-01-13T13:10:26;13.40;;;2.80;;
3795;SDS011;1913;50.660;7.834;2023-01-13T13:12:56;9.20;;;2.37;;
3795;SDS011;1913;50.660;7.834;2023-01-13T13:15:42;10.83;;;1.73;;
3795;SDS011;1913;50.660;7.834;2023-01-13T13:28:37;10.33;;;2.47;;
3795;SDS011;1913;50.660;7.834;2023-01-13T13:31:19;11.13;;;2.50;;
3795;SDS011;1913;50.660;7.834;2023-01-13T13:34:18;10.90;;;2.40;;
3795;SDS011;1913;50.660;7.834;2023-01-13T13:37:20;6.67;;;2.37;;
3795;SDS011;1913;50.660;7.834;2023-01-13T13:39:49;11.37;;;2.10;;
3795;SDS011;1913;50.660;7.834;2023-01-13T13:42:40;9.40;;;2.57;;
3795;SDS011;1913;50.660;7.834;2023-01-13T13:45:27;10.40;;;2.43;;
3795;SDS011;1913;50.660;7.834;2023-01-13T13:50:50;8.40;;;2.13;;
3795;SDS011;1913;50.660;7.834;2023-01-13T13:53:22;12.37;;;2.50;;
3795;SDS011;1913;50.660;7.834;2023-01-13T13:55:55;10.70;;;2.30;;
3795;SDS011;1913;50.660;7.834;2023-01-13T13:58:24;6.30;;;2.10;;
3795;SDS011;1913;50.660;7.834;2023-01-13T14:00:51;8.33;;;1.90;;
3795;SDS011;1913;50.660;7.834;2023-01-13T14:05:56;10.00;;;2.57;;
3795;SDS011;1913;50.660;7.834;2023-01-13T14:08:28;8.33;;;2.00;;
3795;SDS011;1913;50.660;7.834;2023-01-13T14:14:03;10.70;;;2.07;;
3795;SDS011;1913;50.660;7.834;2023-01-13T14:16:32;12.47;;;2.37;;
3795;SDS011;1913;50.660;7.834;2023-01-13T14:18:58;6.73;;;2.10;;
3795;SDS011;1913;50.660;7.834;2023-01-13T14:21:27;5.40;;;2.03;;
3795;SDS011;1913;50.660;7.834;2023-01-13T14:24:01;9.13;;;2.10;;
3795;SDS011;1913;50.660;7.834;2023-01-13T14:26:38;10.70;;;2.10;;
3795;SDS011;1913;50.660;7.834;2023-01-13T14:29:04;4.70;;;1.73;;
3795;SDS011;1913;50.660;7.834;2023-01-13T14:31:30;13.13;;;2.43;;
3795;SDS011;1913;50.660;7.834;2023-01-13T14:33:57;9.60;;;2.40;;
3795;SDS011;1913;50.660;7.834;2023-01-13T14:41:37;13.93;;;2.00;;
3795;SDS011;1913;50.660;7.834;2023-01-13T14:44:28;11.57;;;2.00;;
3795;SDS011;1913;50.660;7.834;2023-01-13T14:46:56;13.63;;;3.33;;
3795;SDS011;1913;50.660;7.834;2023-01-13T14:49:42;11.53;;;1.87;;
3795;SDS011;1913;50.660;7.834;2023-01-13T14:52:27;6.30;;;1.87;;
3795;SDS011;1913;50.660;7.834;2023-01-13T14:57:33;11.60;;;2.17;;
3795;SDS011;1913;50.660;7.834;2023-01-13T15:07:48;2.57;;;1.40;;
3795;SDS011;1913;50.660;7.834;2023-01-13T15:10:18;9.97;;;2.30;;
3795;SDS011;1913;50.660;7.834;2023-01-13T15:12:48;9.70;;;2.40;;
3795;SDS011;1913;50.660;7.834;2023-01-13T15:15:20;9.60;;;2.60;;
3795;SDS011;1913;50.660;7.834;2023-01-13T15:17:49;3.77;;;1.80;;
3795;SDS011;1913;50.660;7.834;2023-01-13T15:20:15;9.57;;;2.23;;
3795;SDS011;1913;50.660;7.834;2023-01-13T15:22:41;8.13;;;2.30;;
3795;SDS011;1913;50.660;7.834;2023-01-13T15:25:07;9.80;;;2.50;;
3795;SDS011;1913;50.660;7.834;2023-01-13T15:27:37;7.77;;;2.00;;
3795;SDS011;1913;50.660;7.834;2023-01-13T15:30:11;9.37;;;2.40;;
3795;SDS011;1913;50.660;7.834;2023-01-13T15:32:45;11.17;;;2.67;;
3795;SDS011;1913;50.660;7.834;2023-01-13T15:35:14;11.50;;;2.30;;
3795;SDS011;1913;50.660;7.834;2023-01-13T15:37:41;8.37;;;2.00;;
3795;SDS011;1913;50.660;7.834;2023-01-13T15:40:19;7.67;;;2.23;;
3795;SDS011;1913;50.660;7.834;2023-01-13T15:42:46;12.13;;;2.53;;
3795;SDS011;1913;50.660;7.834;2023-01-13T15:45:31;10.63;;;2.37;;
3795;SDS011;1913;50.660;7.834;2023-01-13T15:48:17;9.00;;;2.87;;
3795;SDS011;1913;50.660;7.834;2023-01-13T15:50:45;15.50;;;3.20;;
3795;SDS011;1913;50.660;7.834;2023-01-13T15:53:11;7.23;;;2.50;;
3795;SDS011;1913;50.660;7.834;2023-01-13T15:55:38;9.40;;;2.93;;
3795;SDS011;1913;50.660;7.834;2023-01-13T15:58:06;12.63;;;2.50;;
3795;SDS011;1913;50.660;7.834;2023-01-13T16:00:32;7.73;;;2.27;;
3795;SDS011;1913;50.660;7.834;2023-01-13T16:02:57;10.20;;;2.40;;
3795;SDS011;1913;50.660;7.834;2023-01-13T16:05:24;10.73;;;2.90;;
3795;SDS011;1913;50.660;7.834;2023-01-13T16:07:50;15.60;;;2.37;;
3795;SDS011;1913;50.660;7.834;2023-01-13T16:12:46;11.03;;;2.50;;
3795;SDS011;1913;50.660;7.834;2023-01-13T16:15:12;9.30;;;2.03;;
3795;SDS011;1913;50.660;7.834;2023-01-13T16:17:39;8.53;;;2.70;;
3795;SDS011;1913;50.660;7.834;2023-01-13T16:20:11;6.80;;;2.30;;
3795;SDS011;1913;50.660;7.834;2023-01-13T16:22:38;14.67;;;2.67;;
3795;SDS011;1913;50.660;7.834;2023-01-13T16:25:03;7.27;;;2.30;;
3795;SDS011;1913;50.660;7.834;2023-01-13T16:27:29;6.43;;;2.17;;
3795;SDS011;1913;50.660;7.834;2023-01-13T16:29:55;5.90;;;2.17;;
3795;SDS011;1913;50.660;7.834;2023-01-13T16:32:20;13.00;;;1.87;;
3795;SDS011;1913;50.660;7.834;2023-01-13T16:34:46;14.50;;;2.47;;
3795;SDS011;1913;50.660;7.834;2023-01-13T16:37:23;10.13;;;2.43;;
3795;SDS011;1913;50.660;7.834;2023-01-13T16:39:50;7.77;;;2.40;;
3795;SDS011;1913;50.660;7.834;2023-01-13T16:42:16;5.13;;;1.83;;
3795;SDS011;1913;50.660;7.834;2023-01-13T16:44:42;9.17;;;1.97;;
3795;SDS011;1913;50.660;7.834;2023-01-13T16:47:12;21.43;;;8.27;;
3795;SDS011;1913;50.660;7.834;2023-01-13T16:49:39;17.03;;;6.07;;
3795;SDS011;1913;50.660;7.834;2023-01-13T16:52:05;10.67;;;3.83;;
3795;SDS011;1913;50.660;7.834;2023-01-13T16:54:30;14.33;;;4.80;;
3795;SDS011;1913;50.660;7.834;2023-01-13T16:56:56;9.73;;;3.67;;
3795;SDS011;1913;50.660;7.834;2023-01-13T16:59:21;7.60;;;3.70;;
3795;SDS011;1913;50.660;7.834;2023-01-13T17:01:47;12.63;;;4.43;;
3795;SDS011;1913;50.660;7.834;2023-01-13T17:04:17;15.87;;;4.50;;
3795;SDS011;1913;50.660;7.834;2023-01-13T17:09:17;10.47;;;3.33;;
3795;SDS011;1913;50.660;7.834;2023-01-13T17:11:46;8.80;;;2.90;;
3795;SDS011;1913;50.660;7.834;2023-01-13T17:14:12;12.63;;;3.47;;
3795;SDS011;1913;50.660;7.834;2023-01-13T17:16:38;12.30;;;4.90;;
3795;SDS011;1913;50.660;7.834;2023-01-13T17:19:04;14.40;;;4.30;;
3795;SDS011;1913;50.660;7.834;2023-01-13T17:21:30;16.90;;;5.40;;
3795;SDS011;1913;50.660;7.834;2023-01-13T17:23:56;17.50;;;6.17;;
3795;SDS011;1913;50.660;7.834;2023-01-13T17:29:05;14.50;;;2.67;;
3795;SDS011;1913;50.660;7.834;2023-01-13T17:31:33;13.60;;;4.83;;
3795;SDS011;1913;50.660;7.834;2023-01-13T17:33:59;18.23;;;5.17;;
3795;SDS011;1913;50.660;7.834;2023-01-13T17:36:25;12.23;;;4.23;;
3795;SDS011;1913;50.660;7.834;2023-01-13T17:38:51;8.03;;;2.53;;
3795;SDS011;1913;50.660;7.834;2023-01-13T17:41:18;12.70;;;3.00;;
3795;SDS011;1913;50.660;7.834;2023-01-13T17:43:43;11.07;;;2.73;;
3795;SDS011;1913;50.660;7.834;2023-01-13T17:46:09;11.03;;;2.87;;
3795;SDS011;1913;50.660;7.834;2023-01-13T17:48:36;15.03;;;3.27;;
3795;SDS011;1913;50.660;7.834;2023-01-13T17:51:02;20.90;;;3.40;;
3795;SDS011;1913;50.660;7.834;2023-01-13T17:53:34;14.73;;;3.67;;